sensor_id;sensor_type;location;lat;lon;timestamp;temperature;humidity
24262;DHT22;12385;51.412;5.540;2022-10-31T00:00:57;14.20;99.90
24262;DHT22;12385;51.412;5.540;2022-10-31T00:03:23;14.10;99.90
24262;DHT22;12385;51.412;5.540;2022-10-31T00:05:49;14.10;99.90
24262;DHT22;12385;51.412;5.540;2022-10-31T00:08:16;14.10;99.90
24262;DHT22;12385;51.412;5.540;2022-10-31T00:10:43;14.10;99.90
24262;DHT22;12385;51.412;5.540;2022-10-31T00:13:10;14.10;99.90
24262;DHT22;12385;51.412;5.540;2022-10-31T00:15:39;14.10;99.90
24262;DHT22;12385;51.412;5.540;2022-10-31T00:18:06;14.10;99.90
24262;DHT22;12385;51.412;5.540;2022-10-31T00:20:33;14.00;99.90
24262;DHT22;12385;51.412;5.540;2022-10-31T00:22:59;14.00;99.90
24262;DHT22;12385;51.412;5.540;2022-10-31T00:25:26;14.00;99.90
24262;DHT22;12385;51.412;5.540;2022-10-31T00:27:51;14.00;99.90
24262;DHT22;12385;51.412;5.540;2022-10-31T00:30:20;14.00;99.90
24262;DHT22;12385;51.412;5.540;2022-10-31T00:32:46;14.00;99.90
24262;DHT22;12385;51.412;5.540;2022-10-31T00:35:12;13.90;99.90
24262;DHT22;12385;51.412;5.540;2022-10-31T00:37:37;14.00;99.90
24262;DHT22;12385;51.412;5.540;2022-10-31T00:40:03;14.00;99.90
24262;DHT22;12385;51.412;5.540;2022-10-31T00:42:29;13.90;99.90
24262;DHT22;12385;51.412;5.540;2022-10-31T00:44:54;13.90;99.90
24262;DHT22;12385;51.412;5.540;2022-10-31T00:47:20;13.90;99.90
24262;DHT22;12385;51.412;5.540;2022-10-31T00:49:45;13.90;99.90
24262;DHT22;12385;51.412;5.540;2022-10-31T00:52:11;13.90;99.90
24262;DHT22;12385;51.412;5.540;2022-10-31T00:54:37;13.90;99.90
24262;DHT22;12385;51.412;5.540;2022-10-31T00:57:02;13.90;99.90
24262;DHT22;12385;51.412;5.540;2022-10-31T00:59:28;13.90;99.90
24262;DHT22;12385;51.412;5.540;2022-10-31T01:01:53;13.90;99.90
24262;DHT22;12385;51.412;5.540;2022-10-31T01:04:19;13.80;99.90
24262;DHT22;12385;51.412;5.540;2022-10-31T01:06:45;13.80;99.90
24262;DHT22;12385;51.412;5.540;2022-10-31T01:09:10;13.80;99.90
24262;DHT22;12385;51.412;5.540;2022-10-31T01:11:36;13.80;99.90
24262;DHT22;12385;51.412;5.540;2022-10-31T01:14:01;13.80;99.90
24262;DHT22;12385;51.412;5.540;2022-10-31T01:16:27;13.80;99.90
24262;DHT22;12385;51.412;5.540;2022-10-31T01:18:54;13.80;99.90
24262;DHT22;12385;51.412;5.540;2022-10-31T01:21:25;13.80;99.90
24262;DHT22;12385;51.412;5.540;2022-10-31T01:23:56;13.70;99.90
24262;DHT22;12385;51.412;5.540;2022-10-31T01:26:24;13.70;99.90
24262;DHT22;12385;51.412;5.540;2022-10-31T01:28:55;13.70;99.90
24262;DHT22;12385;51.412;5.540;2022-10-31T01:31:23;13.70;99.90
24262;DHT22;12385;51.412;5.540;2022-10-31T01:33:49;13.70;99.90
24262;DHT22;12385;51.412;5.540;2022-10-31T01:38:49;13.60;99.90
24262;DHT22;12385;51.412;5.540;2022-10-31T01:41:17;13.60;99.90
24262;DHT22;12385;51.412;5.540;2022-10-31T01:46:10;13.50;99.90
24262;DHT22;12385;51.412;5.540;2022-10-31T01:48:37;13.50;99.90
24262;DHT22;12385;51.412;5.540;2022-10-31T01:51:03;13.50;99.90
24262;DHT22;12385;51.412;5.540;2022-10-31T01:53:31;13.40;99.90
24262;DHT22;12385;51.412;5.540;2022-10-31T01:55:57;13.40;99.90
24262;DHT22;12385;51.412;5.540;2022-10-31T01:58:26;13.30;99.90
24262;DHT22;12385;51.412;5.540;2022-10-31T02:00:57;13.30;99.90
24262;DHT22;12385;51.412;5.540;2022-10-31T02:03:25;13.30;99.90
24262;DHT22;12385;51.412;5.540;2022-10-31T02:05:54;13.30;99.90
24262;DHT22;12385;51.412;5.540;2022-10-31T02:08:25;13.30;99.90
24262;DHT22;12385;51.412;5.540;2022-10-31T02:10:52;13.20;99.90
24262;DHT22;12385;51.412;5.540;2022-10-31T02:13:18;13.20;99.90
24262;DHT22;12385;51.412;5.540;2022-10-31T02:15:52;13.20;99.90
24262;DHT22;12385;51.412;5.540;2022-10-31T02:18:18;13.20;99.90
24262;DHT22;12385;51.412;5.540;2022-10-31T02:26:26;13.10;99.90
24262;DHT22;12385;51.412;5.540;2022-10-31T02:32:04;13.00;99.90
24262;DHT22;12385;51.412;5.540;2022-10-31T02:37:25;13.00;99.90
24262;DHT22;12385;51.412;5.540;2022-10-31T02:42:38;13.00;99.90
24262;DHT22;12385;51.412;5.540;2022-10-31T02:45:33;13.00;99.90
24262;DHT22;12385;51.412;5.540;2022-10-31T02:48:03;13.00;99.90
24262;DHT22;12385;51.412;5.540;2022-10-31T02:50:34;12.90;99.90
24262;DHT22;12385;51.412;5.540;2022-10-31T02:53:02;12.90;99.90
24262;DHT22;12385;51.412;5.540;2022-10-31T02:58:01;13.00;99.90
24262;DHT22;12385;51.412;5.540;2022-10-31T03:00:30;13.00;99.90
24262;DHT22;12385;51.412;5.540;2022-10-31T03:03:19;13.00;99.90
24262;DHT22;12385;51.412;5.540;2022-10-31T03:08:32;13.00;99.90
24262;DHT22;12385;51.412;5.540;2022-10-31T03:11:08;13.00;99.90
24262;DHT22;12385;51.412;5.540;2022-10-31T03:19:08;13.10;99.90
24262;DHT22;12385;51.412;5.540;2022-10-31T03:21:44;13.10;99.90
24262;DHT22;12385;51.412;5.540;2022-10-31T03:24:13;13.10;99.90
24262;DHT22;12385;51.412;5.540;2022-10-31T03:26:43;13.10;99.90
24262;DHT22;12385;51.412;5.540;2022-10-31T03:29:12;13.10;99.90
24262;DHT22;12385;51.412;5.540;2022-10-31T03:31:56;13.00;99.90
24262;DHT22;12385;51.412;5.540;2022-10-31T03:34:28;13.00;99.90
24262;DHT22;12385;51.412;5.540;2022-10-31T03:36:58;13.00;99.90
24262;DHT22;12385;51.412;5.540;2022-10-31T03:39:25;12.90;99.90
24262;DHT22;12385;51.412;5.540;2022-10-31T03:42:20;12.90;99.90
24262;DHT22;12385;51.412;5.540;2022-10-31T03:44:53;12.90;99.90
24262;DHT22;12385;51.412;5.540;2022-10-31T03:47:21;12.80;99.90
24262;DHT22;12385;51.412;5.540;2022-10-31T03:49:47;12.80;99.90
24262;DHT22;12385;51.412;5.540;2022-10-31T03:52:31;12.80;99.90
24262;DHT22;12385;51.412;5.540;2022-10-31T03:55:07;12.80;99.90
24262;DHT22;12385;51.412;5.540;2022-10-31T03:57:48;12.70;99.90
24262;DHT22;12385;51.412;5.540;2022-10-31T04:00:18;12.70;99.90
24262;DHT22;12385;51.412;5.540;2022-10-31T04:03:07;12.80;99.90
24262;DHT22;12385;51.412;5.540;2022-10-31T04:05:35;12.70;99.90
24262;DHT22;12385;51.412;5.540;2022-10-31T04:08:05;12.70;99.90
24262;DHT22;12385;51.412;5.540;2022-10-31T04:10:34;12.80;99.90
24262;DHT22;12385;51.412;5.540;2022-10-31T04:13:05;12.80;99.90
24262;DHT22;12385;51.412;5.540;2022-10-31T04:15:33;12.80;99.90
24262;DHT22;12385;51.412;5.540;2022-10-31T04:18:00;12.80;99.90
24262;DHT22;12385;51.412;5.540;2022-10-31T04:20:37;12.80;99.90
24262;DHT22;12385;51.412;5.540;2022-10-31T04:23:04;12.80;99.90
24262;DHT22;12385;51.412;5.540;2022-10-31T04:25:30;12.80;99.90
24262;DHT22;12385;51.412;5.540;2022-10-31T04:27:56;12.80;99.90
24262;DHT22;12385;51.412;5.540;2022-10-31T04:30:22;12.80;99.90
24262;DHT22;12385;51.412;5.540;2022-10-31T04:32:47;12.80;99.90
24262;DHT22;12385;51.412;5.540;2022-10-31T04:35:14;12.80;99.90
24262;DHT22;12385;51.412;5.540;2022-10-31T04:37:39;12.80;99.90
24262;DHT22;12385;51.412;5.540;2022-10-31T04:40:05;12.80;99.90
24262;DHT22;12385;51.412;5.540;2022-10-31T04:42:31;12.80;99.90
24262;DHT22;12385;51.412;5.540;2022-10-31T04:44:57;12.80;99.90
24262;DHT22;12385;51.412;5.540;2022-10-31T04:47:23;12.70;99.90
24262;DHT22;12385;51.412;5.540;2022-10-31T04:49:48;12.70;99.90
24262;DHT22;12385;51.412;5.540;2022-10-31T04:52:14;12.70;99.90
24262;DHT22;12385;51.412;5.540;2022-10-31T04:54:40;12.70;99.90
24262;DHT22;12385;51.412;5.540;2022-10-31T04:57:05;12.70;99.90
24262;DHT22;12385;51.412;5.540;2022-10-31T04:59:31;12.70;99.90
24262;DHT22;12385;51.412;5.540;2022-10-31T05:01:57;12.70;99.90
24262;DHT22;12385;51.412;5.540;2022-10-31T05:04:22;12.60;99.90
24262;DHT22;12385;51.412;5.540;2022-10-31T05:06:48;12.60;99.90
24262;DHT22;12385;51.412;5.540;2022-10-31T05:09:14;12.60;99.90
24262;DHT22;12385;51.412;5.540;2022-10-31T05:11:39;12.60;99.90
24262;DHT22;12385;51.412;5.540;2022-10-31T05:14:05;12.60;99.90
24262;DHT22;12385;51.412;5.540;2022-10-31T05:16:31;12.50;99.90
24262;DHT22;12385;51.412;5.540;2022-10-31T05:18:56;12.50;99.90
24262;DHT22;12385;51.412;5.540;2022-10-31T05:21:23;12.50;99.90
24262;DHT22;12385;51.412;5.540;2022-10-31T05:23:49;12.40;99.90
24262;DHT22;12385;51.412;5.540;2022-10-31T05:26:14;12.40;99.90
24262;DHT22;12385;51.412;5.540;2022-10-31T05:28:40;12.40;99.90
24262;DHT22;12385;51.412;5.540;2022-10-31T05:31:06;12.30;99.90
24262;DHT22;12385;51.412;5.540;2022-10-31T05:33:31;12.30;99.90
24262;DHT22;12385;51.412;5.540;2022-10-31T05:35:57;12.20;99.90
24262;DHT22;12385;51.412;5.540;2022-10-31T05:38:22;12.20;99.90
24262;DHT22;12385;51.412;5.540;2022-10-31T05:40:48;12.20;99.90
24262;DHT22;12385;51.412;5.540;2022-10-31T05:43:13;12.20;99.90
24262;DHT22;12385;51.412;5.540;2022-10-31T05:45:39;12.10;99.90
24262;DHT22;12385;51.412;5.540;2022-10-31T05:48:05;12.10;99.90
24262;DHT22;12385;51.412;5.540;2022-10-31T05:50:31;12.10;99.90
24262;DHT22;12385;51.412;5.540;2022-10-31T05:52:59;12.10;99.90
24262;DHT22;12385;51.412;5.540;2022-10-31T05:55:25;12.10;99.90
24262;DHT22;12385;51.412;5.540;2022-10-31T05:57:52;12.10;99.90
24262;DHT22;12385;51.412;5.540;2022-10-31T06:00:18;12.00;99.90
24262;DHT22;12385;51.412;5.540;2022-10-31T06:02:44;12.00;99.90
24262;DHT22;12385;51.412;5.540;2022-10-31T06:05:09;11.90;99.90
24262;DHT22;12385;51.412;5.540;2022-10-31T06:07:35;11.90;99.90
24262;DHT22;12385;51.412;5.540;2022-10-31T06:10:03;11.90;99.90
24262;DHT22;12385;51.412;5.540;2022-10-31T06:12:29;11.90;99.90
24262;DHT22;12385;51.412;5.540;2022-10-31T06:14:54;11.80;99.90
24262;DHT22;12385;51.412;5.540;2022-10-31T06:17:20;11.80;99.90
24262;DHT22;12385;51.412;5.540;2022-10-31T06:19:46;11.80;99.90
24262;DHT22;12385;51.412;5.540;2022-10-31T06:22:11;11.80;99.90
24262;DHT22;12385;51.412;5.540;2022-10-31T06:24:40;11.80;99.90
24262;DHT22;12385;51.412;5.540;2022-10-31T06:27:06;11.80;99.90
24262;DHT22;12385;51.412;5.540;2022-10-31T06:29:31;11.80;99.90
24262;DHT22;12385;51.412;5.540;2022-10-31T06:31:57;11.80;99.90
24262;DHT22;12385;51.412;5.540;2022-10-31T06:34:23;11.80;99.90
24262;DHT22;12385;51.412;5.540;2022-10-31T06:36:49;11.80;99.90
24262;DHT22;12385;51.412;5.540;2022-10-31T06:39:15;11.80;99.90
24262;DHT22;12385;51.412;5.540;2022-10-31T06:41:40;11.80;99.90
24262;DHT22;12385;51.412;5.540;2022-10-31T06:44:07;11.90;99.90
24262;DHT22;12385;51.412;5.540;2022-10-31T06:46:34;11.90;99.90
24262;DHT22;12385;51.412;5.540;2022-10-31T06:48:59;11.90;99.90
24262;DHT22;12385;51.412;5.540;2022-10-31T06:51:25;11.80;99.90
24262;DHT22;12385;51.412;5.540;2022-10-31T06:53:51;11.80;99.90
24262;DHT22;12385;51.412;5.540;2022-10-31T06:56:16;11.80;99.90
24262;DHT22;12385;51.412;5.540;2022-10-31T06:58:42;11.80;99.90
24262;DHT22;12385;51.412;5.540;2022-10-31T07:01:07;11.90;99.90
24262;DHT22;12385;51.412;5.540;2022-10-31T07:03:33;11.90;99.90
24262;DHT22;12385;51.412;5.540;2022-10-31T07:05:59;11.90;99.90
24262;DHT22;12385;51.412;5.540;2022-10-31T07:08:24;11.90;99.90
24262;DHT22;12385;51.412;5.540;2022-10-31T07:10:53;11.90;99.90
24262;DHT22;12385;51.412;5.540;2022-10-31T07:13:19;11.90;99.90
24262;DHT22;12385;51.412;5.540;2022-10-31T07:15:50;11.90;99.90
24262;DHT22;12385;51.412;5.540;2022-10-31T07:18:15;11.90;99.90
24262;DHT22;12385;51.412;5.540;2022-10-31T07:20:41;11.90;99.90
24262;DHT22;12385;51.412;5.540;2022-10-31T07:23:08;11.90;99.90
24262;DHT22;12385;51.412;5.540;2022-10-31T07:25:38;11.90;99.90
24262;DHT22;12385;51.412;5.540;2022-10-31T07:28:04;11.90;99.90
24262;DHT22;12385;51.412;5.540;2022-10-31T07:30:30;11.90;99.90
24262;DHT22;12385;51.412;5.540;2022-10-31T07:32:55;12.00;99.90
24262;DHT22;12385;51.412;5.540;2022-10-31T07:35:23;12.00;99.90
24262;DHT22;12385;51.412;5.540;2022-10-31T07:37:50;12.00;99.90
24262;DHT22;12385;51.412;5.540;2022-10-31T07:40:16;12.00;99.90
24262;DHT22;12385;51.412;5.540;2022-10-31T07:42:47;12.00;99.90
24262;DHT22;12385;51.412;5.540;2022-10-31T07:45:18;12.00;99.90
24262;DHT22;12385;51.412;5.540;2022-10-31T07:47:46;12.00;99.90
24262;DHT22;12385;51.412;5.540;2022-10-31T07:50:17;12.00;99.90
24262;DHT22;12385;51.412;5.540;2022-10-31T07:52:43;12.10;99.90
24262;DHT22;12385;51.412;5.540;2022-10-31T07:55:10;12.10;99.90
24262;DHT22;12385;51.412;5.540;2022-10-31T07:57:36;12.10;99.90
24262;DHT22;12385;51.412;5.540;2022-10-31T08:00:12;12.10;99.90
24262;DHT22;12385;51.412;5.540;2022-10-31T08:02:38;12.20;99.90
24262;DHT22;12385;51.412;5.540;2022-10-31T08:05:03;12.20;99.90
24262;DHT22;12385;51.412;5.540;2022-10-31T08:07:36;12.20;99.90
24262;DHT22;12385;51.412;5.540;2022-10-31T08:10:02;12.30;99.90
24262;DHT22;12385;51.412;5.540;2022-10-31T08:12:28;12.30;99.90
24262;DHT22;12385;51.412;5.540;2022-10-31T08:14:53;12.40;99.90
24262;DHT22;12385;51.412;5.540;2022-10-31T08:17:19;12.40;99.90
24262;DHT22;12385;51.412;5.540;2022-10-31T08:19:46;12.50;99.90
24262;DHT22;12385;51.412;5.540;2022-10-31T08:22:11;12.50;99.90
24262;DHT22;12385;51.412;5.540;2022-10-31T08:24:37;12.60;99.90
24262;DHT22;12385;51.412;5.540;2022-10-31T08:27:02;12.70;99.90
24262;DHT22;12385;51.412;5.540;2022-10-31T08:29:28;12.90;99.90
24262;DHT22;12385;51.412;5.540;2022-10-31T08:31:53;12.90;99.90
24262;DHT22;12385;51.412;5.540;2022-10-31T08:34:19;13.00;99.90
24262;DHT22;12385;51.412;5.540;2022-10-31T08:36:44;13.10;99.90
24262;DHT22;12385;51.412;5.540;2022-10-31T08:39:11;13.20;99.90
24262;DHT22;12385;51.412;5.540;2022-10-31T08:41:37;13.20;99.90
24262;DHT22;12385;51.412;5.540;2022-10-31T08:44:03;13.30;99.90
24262;DHT22;12385;51.412;5.540;2022-10-31T08:46:28;13.40;99.90
24262;DHT22;12385;51.412;5.540;2022-10-31T08:48:54;13.40;99.90
24262;DHT22;12385;51.412;5.540;2022-10-31T08:51:19;13.40;99.90
24262;DHT22;12385;51.412;5.540;2022-10-31T08:53:45;13.40;99.90
24262;DHT22;12385;51.412;5.540;2022-10-31T08:56:10;13.50;99.90
24262;DHT22;12385;51.412;5.540;2022-10-31T08:58:36;13.50;99.90
24262;DHT22;12385;51.412;5.540;2022-10-31T09:01:02;13.50;99.90
24262;DHT22;12385;51.412;5.540;2022-10-31T09:03:30;13.50;99.90
24262;DHT22;12385;51.412;5.540;2022-10-31T09:06:00;13.50;99.90
24262;DHT22;12385;51.412;5.540;2022-10-31T09:08:26;13.60;99.90
24262;DHT22;12385;51.412;5.540;2022-10-31T09:10:58;13.70;99.90
24262;DHT22;12385;51.412;5.540;2022-10-31T09:13:24;13.80;99.90
24262;DHT22;12385;51.412;5.540;2022-10-31T09:15:50;13.90;99.90
24262;DHT22;12385;51.412;5.540;2022-10-31T09:18:19;14.00;99.90
24262;DHT22;12385;51.412;5.540;2022-10-31T09:20:46;14.10;99.90
24262;DHT22;12385;51.412;5.540;2022-10-31T09:23:22;14.20;99.90
24262;DHT22;12385;51.412;5.540;2022-10-31T09:25:50;14.30;99.90
24262;DHT22;12385;51.412;5.540;2022-10-31T09:28:22;14.30;99.90
24262;DHT22;12385;51.412;5.540;2022-10-31T09:30:50;14.40;99.90
24262;DHT22;12385;51.412;5.540;2022-10-31T09:33:17;14.50;99.90
24262;DHT22;12385;51.412;5.540;2022-10-31T09:35:42;14.60;99.90
24262;DHT22;12385;51.412;5.540;2022-10-31T09:38:10;14.60;99.90
24262;DHT22;12385;51.412;5.540;2022-10-31T09:50:50;14.70;99.90
24262;DHT22;12385;51.412;5.540;2022-10-31T09:55:51;14.90;99.90
24262;DHT22;12385;51.412;5.540;2022-10-31T09:58:20;15.00;99.90
24262;DHT22;12385;51.412;5.540;2022-10-31T10:00:47;15.10;99.90
24262;DHT22;12385;51.412;5.540;2022-10-31T10:03:35;15.10;99.90
24262;DHT22;12385;51.412;5.540;2022-10-31T10:06:11;15.30;99.90
24262;DHT22;12385;51.412;5.540;2022-10-31T10:08:39;15.30;99.90
24262;DHT22;12385;51.412;5.540;2022-10-31T10:11:20;15.30;99.90
24262;DHT22;12385;51.412;5.540;2022-10-31T10:14:25;15.50;99.90
24262;DHT22;12385;51.412;5.540;2022-10-31T10:17:17;15.60;99.90
24262;DHT22;12385;51.412;5.540;2022-10-31T10:27:55;15.90;99.90
24262;DHT22;12385;51.412;5.540;2022-10-31T10:30:30;16.00;99.90
24262;DHT22;12385;51.412;5.540;2022-10-31T10:32:59;16.10;99.90
24262;DHT22;12385;51.412;5.540;2022-10-31T10:35:32;16.20;99.90
24262;DHT22;12385;51.412;5.540;2022-10-31T10:40:44;16.30;99.90
24262;DHT22;12385;51.412;5.540;2022-10-31T10:43:34;16.40;99.90
24262;DHT22;12385;51.412;5.540;2022-10-31T10:49:30;16.50;99.90
24262;DHT22;12385;51.412;5.540;2022-10-31T10:55:12;16.50;99.90
24262;DHT22;12385;51.412;5.540;2022-10-31T10:58:07;16.50;99.90
24262;DHT22;12385;51.412;5.540;2022-10-31T11:00:40;16.50;99.90
24262;DHT22;12385;51.412;5.540;2022-10-31T11:03:06;16.60;99.90
24262;DHT22;12385;51.412;5.540;2022-10-31T11:05:37;16.60;99.90
24262;DHT22;12385;51.412;5.540;2022-10-31T11:08:05;16.70;99.90
24262;DHT22;12385;51.412;5.540;2022-10-31T11:10:31;16.70;99.90
24262;DHT22;12385;51.412;5.540;2022-10-31T11:13:22;16.80;99.90
24262;DHT22;12385;51.412;5.540;2022-10-31T11:15:59;16.90;99.90
24262;DHT22;12385;51.412;5.540;2022-10-31T11:18:28;16.90;99.90
24262;DHT22;12385;51.412;5.540;2022-10-31T11:20:57;16.90;99.90
24262;DHT22;12385;51.412;5.540;2022-10-31T11:23:24;17.00;99.90
24262;DHT22;12385;51.412;5.540;2022-10-31T11:28:22;17.20;99.90
24262;DHT22;12385;51.412;5.540;2022-10-31T11:30:54;17.30;99.90
24262;DHT22;12385;51.412;5.540;2022-10-31T11:33:34;17.40;99.90
24262;DHT22;12385;51.412;5.540;2022-10-31T11:36:01;17.50;99.90
24262;DHT22;12385;51.412;5.540;2022-10-31T11:38:39;17.50;99.90
24262;DHT22;12385;51.412;5.540;2022-10-31T11:41:09;17.60;99.90
24262;DHT22;12385;51.412;5.540;2022-10-31T11:43:36;17.80;99.90
24262;DHT22;12385;51.412;5.540;2022-10-31T11:46:13;17.80;99.90
24262;DHT22;12385;51.412;5.540;2022-10-31T11:48:47;17.90;99.90
24262;DHT22;12385;51.412;5.540;2022-10-31T11:51:26;17.90;99.90
24262;DHT22;12385;51.412;5.540;2022-10-31T11:53:55;17.90;99.90
24262;DHT22;12385;51.412;5.540;2022-10-31T11:56:23;17.90;99.90
24262;DHT22;12385;51.412;5.540;2022-10-31T11:59:02;17.90;99.90
24262;DHT22;12385;51.412;5.540;2022-10-31T12:01:30;17.90;99.90
24262;DHT22;12385;51.412;5.540;2022-10-31T12:04:10;17.80;99.90
24262;DHT22;12385;51.412;5.540;2022-10-31T12:06:43;17.80;99.90
24262;DHT22;12385;51.412;5.540;2022-10-31T12:17:44;17.70;99.90
24262;DHT22;12385;51.412;5.540;2022-10-31T12:23:29;17.90;99.90
24262;DHT22;12385;51.412;5.540;2022-10-31T12:26:17;18.00;99.90
24262;DHT22;12385;51.412;5.540;2022-10-31T12:29:00;18.10;99.90
24262;DHT22;12385;51.412;5.540;2022-10-31T12:37:49;18.40;99.90
24262;DHT22;12385;51.412;5.540;2022-10-31T12:41:06;18.50;99.90
24262;DHT22;12385;51.412;5.540;2022-10-31T13:00:12;19.00;99.90
24262;DHT22;12385;51.412;5.540;2022-10-31T13:05:14;19.00;99.90
24262;DHT22;12385;51.412;5.540;2022-10-31T13:08:40;19.00;99.90
24262;DHT22;12385;51.412;5.540;2022-10-31T13:10:49;19.00;99.90
24262;DHT22;12385;51.412;5.540;2022-10-31T13:13:23;19.00;99.90
24262;DHT22;12385;51.412;5.540;2022-10-31T13:15:57;19.00;99.90
24262;DHT22;12385;51.412;5.540;2022-10-31T13:18:33;19.00;99.90
24262;DHT22;12385;51.412;5.540;2022-10-31T13:21:03;19.00;99.90
24262;DHT22;12385;51.412;5.540;2022-10-31T13:23:34;19.10;99.90
24262;DHT22;12385;51.412;5.540;2022-10-31T13:26:12;19.10;99.90
24262;DHT22;12385;51.412;5.540;2022-10-31T13:29:33;19.20;99.90
24262;DHT22;12385;51.412;5.540;2022-10-31T13:31:41;19.20;99.90
24262;DHT22;12385;51.412;5.540;2022-10-31T13:34:37;19.20;99.90
24262;DHT22;12385;51.412;5.540;2022-10-31T13:42:57;19.10;99.90
24262;DHT22;12385;51.412;5.540;2022-10-31T13:45:25;19.20;99.90
24262;DHT22;12385;51.412;5.540;2022-10-31T13:48:18;19.10;99.90
24262;DHT22;12385;51.412;5.540;2022-10-31T13:51:03;19.20;99.90
24262;DHT22;12385;51.412;5.540;2022-10-31T13:53:43;19.10;99.90
24262;DHT22;12385;51.412;5.540;2022-10-31T13:56:19;19.10;99.90
24262;DHT22;12385;51.412;5.540;2022-10-31T13:58:59;19.00;99.90
24262;DHT22;12385;51.412;5.540;2022-10-31T14:01:25;19.00;99.90
24262;DHT22;12385;51.412;5.540;2022-10-31T14:09:19;18.70;99.90
24262;DHT22;12385;51.412;5.540;2022-10-31T14:11:46;18.60;99.90
24262;DHT22;12385;51.412;5.540;2022-10-31T14:14:13;18.60;99.90
24262;DHT22;12385;51.412;5.540;2022-10-31T14:16:42;18.60;99.90
24262;DHT22;12385;51.412;5.540;2022-10-31T14:19:19;18.70;99.90
24262;DHT22;12385;51.412;5.540;2022-10-31T14:21:47;18.80;99.90
24262;DHT22;12385;51.412;5.540;2022-10-31T14:24:33;18.80;99.90
24262;DHT22;12385;51.412;5.540;2022-10-31T14:27:02;18.90;99.90
24262;DHT22;12385;51.412;5.540;2022-10-31T14:29:33;18.90;99.90
24262;DHT22;12385;51.412;5.540;2022-10-31T14:32:23;18.90;99.90
24262;DHT22;12385;51.412;5.540;2022-10-31T14:34:57;18.80;99.90
24262;DHT22;12385;51.412;5.540;2022-10-31T14:38:01;18.70;99.90
24262;DHT22;12385;51.412;5.540;2022-10-31T14:46:39;18.70;99.90
24262;DHT22;12385;51.412;5.540;2022-10-31T14:51:57;19.00;99.90
24262;DHT22;12385;51.412;5.540;2022-10-31T14:54:31;19.10;99.90
24262;DHT22;12385;51.412;5.540;2022-10-31T14:57:05;19.40;99.90
24262;DHT22;12385;51.412;5.540;2022-10-31T14:59:35;19.60;99.90
24262;DHT22;12385;51.412;5.540;2022-10-31T15:05:20;19.70;99.90
24262;DHT22;12385;51.412;5.540;2022-10-31T15:07:53;19.60;99.90
24262;DHT22;12385;51.412;5.540;2022-10-31T15:10:30;19.50;99.90
24262;DHT22;12385;51.412;5.540;2022-10-31T15:13:09;19.30;99.90
24262;DHT22;12385;51.412;5.540;2022-10-31T15:15:36;19.20;99.90
24262;DHT22;12385;51.412;5.540;2022-10-31T15:18:04;19.00;99.90
24262;DHT22;12385;51.412;5.540;2022-10-31T15:20:41;18.90;99.90
24262;DHT22;12385;51.412;5.540;2022-10-31T15:23:34;18.80;99.90
24262;DHT22;12385;51.412;5.540;2022-10-31T15:26:02;18.70;99.90
24262;DHT22;12385;51.412;5.540;2022-10-31T15:28:28;18.50;99.90
24262;DHT22;12385;51.412;5.540;2022-10-31T15:31:00;18.40;99.90
24262;DHT22;12385;51.412;5.540;2022-10-31T15:33:40;18.40;99.90
24262;DHT22;12385;51.412;5.540;2022-10-31T15:36:06;18.30;99.90
24262;DHT22;12385;51.412;5.540;2022-10-31T15:38:43;18.20;99.90
24262;DHT22;12385;51.412;5.540;2022-10-31T15:41:47;18.10;99.90
24262;DHT22;12385;51.412;5.540;2022-10-31T15:44:21;18.00;99.90
24262;DHT22;12385;51.412;5.540;2022-10-31T15:47:15;17.90;99.90
24262;DHT22;12385;51.412;5.540;2022-10-31T15:49:56;17.90;99.90
24262;DHT22;12385;51.412;5.540;2022-10-31T15:52:41;17.80;99.90
24262;DHT22;12385;51.412;5.540;2022-10-31T15:57:42;17.60;99.90
24262;DHT22;12385;51.412;5.540;2022-10-31T16:00:23;17.60;99.90
24262;DHT22;12385;51.412;5.540;2022-10-31T16:02:49;17.50;99.90
24262;DHT22;12385;51.412;5.540;2022-10-31T16:05:17;17.50;99.90
24262;DHT22;12385;51.412;5.540;2022-10-31T16:07:52;17.40;99.90
24262;DHT22;12385;51.412;5.540;2022-10-31T16:10:24;17.30;99.90
24262;DHT22;12385;51.412;5.540;2022-10-31T16:12:52;17.30;99.90
24262;DHT22;12385;51.412;5.540;2022-10-31T16:15:19;17.20;99.90
24262;DHT22;12385;51.412;5.540;2022-10-31T16:17:47;17.20;99.90
24262;DHT22;12385;51.412;5.540;2022-10-31T16:20:25;17.10;99.90
24262;DHT22;12385;51.412;5.540;2022-10-31T16:22:51;17.10;99.90
24262;DHT22;12385;51.412;5.540;2022-10-31T16:25:28;17.10;99.90
24262;DHT22;12385;51.412;5.540;2022-10-31T16:27:57;17.10;99.90
24262;DHT22;12385;51.412;5.540;2022-10-31T16:30:40;17.10;99.90
24262;DHT22;12385;51.412;5.540;2022-10-31T16:35:46;17.00;99.90
24262;DHT22;12385;51.412;5.540;2022-10-31T16:38:12;16.90;99.90
24262;DHT22;12385;51.412;5.540;2022-10-31T16:40:40;16.90;99.90
24262;DHT22;12385;51.412;5.540;2022-10-31T16:43:10;16.90;99.90
24262;DHT22;12385;51.412;5.540;2022-10-31T16:45:37;16.90;99.90
24262;DHT22;12385;51.412;5.540;2022-10-31T16:48:14;16.90;99.90
24262;DHT22;12385;51.412;5.540;2022-10-31T16:50:42;16.90;99.90
24262;DHT22;12385;51.412;5.540;2022-10-31T16:53:08;16.90;99.90
24262;DHT22;12385;51.412;5.540;2022-10-31T16:55:54;16.90;99.90
24262;DHT22;12385;51.412;5.540;2022-10-31T16:58:24;16.90;99.90
24262;DHT22;12385;51.412;5.540;2022-10-31T17:00:51;16.90;99.90
24262;DHT22;12385;51.412;5.540;2022-10-31T17:03:17;16.90;99.90
24262;DHT22;12385;51.412;5.540;2022-10-31T17:05:43;16.90;99.90
24262;DHT22;12385;51.412;5.540;2022-10-31T17:08:08;16.80;99.90
24262;DHT22;12385;51.412;5.540;2022-10-31T17:10:35;16.80;99.90
24262;DHT22;12385;51.412;5.540;2022-10-31T17:13:02;16.80;99.90
24262;DHT22;12385;51.412;5.540;2022-10-31T17:15:35;16.80;99.90
24262;DHT22;12385;51.412;5.540;2022-10-31T17:18:02;16.70;99.90
24262;DHT22;12385;51.412;5.540;2022-10-31T17:20:30;16.60;99.90
24262;DHT22;12385;51.412;5.540;2022-10-31T17:22:58;16.60;99.90
24262;DHT22;12385;51.412;5.540;2022-10-31T17:25:27;16.60;99.90
24262;DHT22;12385;51.412;5.540;2022-10-31T17:27:53;16.60;99.90
24262;DHT22;12385;51.412;5.540;2022-10-31T17:30:20;16.50;99.90
24262;DHT22;12385;51.412;5.540;2022-10-31T17:32:46;16.50;99.90
24262;DHT22;12385;51.412;5.540;2022-10-31T17:35:14;16.40;99.90
24262;DHT22;12385;51.412;5.540;2022-10-31T17:37:42;16.40;99.90
24262;DHT22;12385;51.412;5.540;2022-10-31T17:40:09;16.30;99.90
24262;DHT22;12385;51.412;5.540;2022-10-31T17:42:35;16.30;99.90
24262;DHT22;12385;51.412;5.540;2022-10-31T17:45:01;16.20;99.90
24262;DHT22;12385;51.412;5.540;2022-10-31T17:47:26;16.20;99.90
24262;DHT22;12385;51.412;5.540;2022-10-31T17:49:52;16.20;99.90
24262;DHT22;12385;51.412;5.540;2022-10-31T17:52:18;16.10;99.90
24262;DHT22;12385;51.412;5.540;2022-10-31T17:54:45;16.10;99.90
24262;DHT22;12385;51.412;5.540;2022-10-31T17:57:11;16.00;99.90